West Camp, New York
Current Conditions -  °F | °C
As of 4:53 AM on Tuesday 27 Jan 2015 (Local Time) from KPOU Reporting Station
Light Snow Light Snow  
Wind Chill: -16°   Ceiling: 1700
Heat Index: -8°   Visibility: 1.2mi
Dew Point: -12°   Wind: 15mph
Humidity: 77%   Direction: 360°N
Pressure: 29.74"   Gusts: 23mph
Location:  42.12°N, 73.94°W
Report Text: KPOU 270953Z AUTO 36013G20KT 1 1/4SM -SN OVC017 M08/M12 A2974 RMK AO2 SLP072 P0000 T10831117 TSNO
Loading
Personal Weather Stations






























Interactive Weather Map New forecast layout! Learn more

10-Day Weather Forecast

Advertisements
Track Severe Weather on mobile